Blue Horizons Flying Club, Inc.

Radar AviationWeather DUATS TFRs Wunderground Accuweather Weather.com

alt : Radar

TAFs

KTOL 312217Z 3122/0118 34015G25KT 5SM -RASN BKN013 OVC020
     TEMPO 0103/0104 3SM -RASN OVC015
   FM010400 36015G25KT 6SM -RASN BKN007 OVC010
   FM011000 36015G25KT 6SM -RASN OVC015
   FM011500 36015G25KT 6SM -SHSN OVC018
KJXN 312143Z 3122/0118 36017G29KT 1 1/2SM -SN OVC015
   FM312230 36015G26KT P6SM -SN OVC020
   FM010300 36012G20KT P6SM BKN025
   FM010900 36012KT P6SM BKN035
   FM011400 01011KT P6SM SCT040
KFDY 312129Z 3121/0118 33014G24KT 6SM -SHRA BR BKN015 OVC025
     TEMPO 0103/0104 4SM -RASN OVC015
   FM010400 35015G25KT 6SM -RASN BKN007 OVC010
   FM011000 34015G25KT 6SM -RASN OVC015
   FM011500 36015G25KT 6SM -RASN OVC018
KCLE 312122Z 3121/0124 01010KT 5SM -RA BKN025 OVC035
   FM010200 01008KT 4SM -RA BR BKN015 OVC025
   FM010600 36015G28KT 4SM -SHRA BR SCT008 OVC015
   FM011000 36015G25KT 2SM -RASN BR OVC008
   FM011500 35015G25KT 2SM -RASN BR OVC007
   FM011900 35012G20KT 6SM -RA BR BKN015 OVC025
KDTW 312103Z 3121/0124 36020G30KT 6SM -SHRA BKN017 OVC025
   FM010100 36015G25KT 4SM -SHRASN OVC015
   FM011000 36015G25KT P6SM OVC015
   FM011600 36014G20KT P6SM OVC025
   FM012000 36013KT P6SM BKN035
KFWA 311742Z 3118/0118 30013G21KT P6SM VCSH SCT015 OVC025
     TEMPO 3118/3121 OVC015
   FM312100 34020G33KT 3SM -RASN OVC015
   FM010000 36018G28KT 3SM -SHSN OVC015
   FM010400 35016G25KT P6SM BKN025
   FM011000 36012G18KT P6SM FEW025

METARs

KDUH 312235Z AUTO 36014G21KT 5SM -RA BKN014 OVC020 03/01 A2998 RMK AO2
KTDZ 312235Z AUTO 34020G25KT 7SM -SN BKN013 OVC019 03/01 A2997 RMK AO2 PK WND 34027/2225 RAE35SNB35 P0003 T00330011 TSNO
KFWA 312226Z 36018G27KT 8SM -RA BKN012 BKN019 OVC034 02/01 A3003 RMK AO2 PK WND 35029/2157 RAB20PLE20 P0000 T00220006
KJXN 312206Z 36015G28KT 6SM UP BR SCT010 BKN016 OVC021 01/M01 A3005 RMK AO2 PK WND 35028/2158 UPB06SNE06 P0000 T00111006
KTOL 312201Z 35018G26KT 3SM -SN BR BKN013 OVC020 03/02 A2996 RMK AO2 PK WND 01026/2155 P0001
KDTW 312153Z 34018G24KT 10SM -RA OVC020 04/01 A2995 RMK AO2 PK WND 32028/2102 SLP147 P0001 T00390011
KFDY 312153Z AUTO 35017G21KT 10SM -RA BKN012 BKN016 OVC033 05/03 A2990 RMK AO2 SLP126 P0002 T00500028
KCLE 312151Z 01003KT 5SM -RA BR OVC035 07/04 A2989 RMK AO2 SLP125 P0005 T00670044

alt : Satellite

alt : TFRs